KGDV/GDV METAR and TAF weather

Enter ICAO airport designator
Station Type Date Time Source
KGDV METAR 2021/09/24 06:56 UTC NOAA

KGDV 240656Z AUTO 36008KT 10SM OVC100 12/03 A3016 RMK AO2 SLP204 T01220028 402500089


Station Type Date Time Source
KGDV Decoded METAR 2021/09/24 06:56 UTC NOAA

Glendive, Dawson Community Airport, MT, United States (KGDV) 47-08N 104-48W
Sep 24, 2021 - 02:56 AM EDT / 2021.09.24 0656 UTC
Wind: from the N (360 degrees) at 9 MPH (8 KT):0
Visibility: 10 mile(s):0
Sky conditions: overcast
Temperature: 54.0 F (12.2 C)
Dew Point: 37.0 F (2.8 C)
Relative Humidity: 52%
Pressure (altimeter): 30.16 in. Hg (1021 hPa)
ob: KGDV 240656Z AUTO 36008KT 10SM OVC100 12/03 A3016 RMK AO2 SLP204 T01220028 402500089
cycle: 7

Station Type Date Time Source
KGDV TAF 2021/09/24 06:30 UTC NOAA

TAF KGDV 240527Z 2406/2506 36005KT P6SM SCT070 BKN120
FM241300 VRB05KT P6SM FEW100
FM241600 32008KT P6SM FEW200
FM242000 32013G21KT P6SM FEW250
FM250000 32008KT P6SM FEW250

Example: see airport list